Pagina principale
METAR-TAF:

METAR-TAF

Aeroporti :

Aeroporto di N'Djamena-Hassan Djamous

N'Djamena, Ciad

latitudine: 12-08N, longitudine: 015-02E, altezza: 295 m

Osservazione

Il bollettino è stato emesso 55 minuti fa, alle 14:00 UTC
Vento 6 kt da direzioni variabili
Temperature 43°C
Umidità 16%
Pressione 1004 hPa
Visibilità 10 km o più
Poco nuvoloso ad un'altezza di 4000 ft

METAR: FTTJ 211400Z VRB06KT 9999 FEW040 43/12 Q1004 NOSIG

Ora: 15:55 (14:55 UTC)

Previsione

Il bollettino è stato emesso 3 ore e 55 minuti fa, alle 11:00 UTC
Previsione valida dal 21 alle 12 UTC al 22 alle 18 UTC
Vento 10 kt da sud/sud-ovest
Visibilità: 7000 m
Probabilità 30% :
Temporaneamente
dal 21 alle 12 UTC al 22 alle 18 UTC
temporale

TAF: FTTJ 211100Z 2112/2218 20010KT 7000 NSC PROB30 TEMPO 2112/2218 TS

Osservazioni e previsioni meteorologiche di più di 4000 aeroporti (messaggi METAR e TAF).

Le stazioni disponibili sono rappresentate dai dischi gialli e rossi sulla carta.

Puntare il mouse per vedere il nome della stazione.

Clicca sopra per visualizzare le osservazioni e previsioni meteorologiche.

Per cambiare la mappa : fare clic sui pulsanti verdi con una croce nera per ingrandire, il pulsante verde con un trattino per diminuire, o sulla freccia verde per le mappe adiacenti.


METAR-TAF: